sensor_id;sensor_type;location;lat;lon;timestamp;P1;durP1;ratioP1;P2;durP2;ratioP2
27642;SDS011;15053;48.618;10.024;2023-06-22T00:01:19;21.08;;;15.32;;
27642;SDS011;15053;48.618;10.024;2023-06-22T00:03:47;21.70;;;15.75;;
27642;SDS011;15053;48.618;10.024;2023-06-22T00:06:14;21.27;;;13.93;;
27642;SDS011;15053;48.618;10.024;2023-06-22T00:08:40;20.88;;;14.35;;
27642;SDS011;15053;48.618;10.024;2023-06-22T00:11:07;19.13;;;12.63;;
27642;SDS011;15053;48.618;10.024;2023-06-22T00:13:34;19.70;;;14.00;;
27642;SDS011;15053;48.618;10.024;2023-06-22T00:16:00;19.45;;;12.73;;
27642;SDS011;15053;48.618;10.024;2023-06-22T00:18:27;16.80;;;12.35;;
27642;SDS011;15053;48.618;10.024;2023-06-22T00:20:54;19.13;;;12.95;;
27642;SDS011;15053;48.618;10.024;2023-06-22T00:23:25;16.17;;;11.30;;
27642;SDS011;15053;48.618;10.024;2023-06-22T00:25:52;16.13;;;11.68;;
27642;SDS011;15053;48.618;10.024;2023-06-22T00:28:18;15.57;;;10.43;;
27642;SDS011;15053;48.618;10.024;2023-06-22T00:30:45;16.23;;;10.60;;
27642;SDS011;15053;48.618;10.024;2023-06-22T00:33:12;17.75;;;10.48;;
27642;SDS011;15053;48.618;10.024;2023-06-22T00:35:39;16.58;;;10.80;;
27642;SDS011;15053;48.618;10.024;2023-06-22T00:38:07;14.25;;;10.15;;
27642;SDS011;15053;48.618;10.024;2023-06-22T00:40:34;18.55;;;10.70;;
27642;SDS011;15053;48.618;10.024;2023-06-22T00:43:01;16.95;;;9.70;;
27642;SDS011;15053;48.618;10.024;2023-06-22T00:45:28;16.90;;;9.32;;
27642;SDS011;15053;48.618;10.024;2023-06-22T00:47:56;16.85;;;10.07;;
27642;SDS011;15053;48.618;10.024;2023-06-22T00:50:24;16.75;;;9.43;;
27642;SDS011;15053;48.618;10.024;2023-06-22T00:52:53;15.13;;;10.00;;
27642;SDS011;15053;48.618;10.024;2023-06-22T00:55:25;11.82;;;9.10;;
27642;SDS011;15053;48.618;10.024;2023-06-22T00:57:52;13.02;;;8.88;;
27642;SDS011;15053;48.618;10.024;2023-06-22T01:00:23;17.97;;;8.50;;
27642;SDS011;15053;48.618;10.024;2023-06-22T01:02:52;15.88;;;9.05;;
27642;SDS011;15053;48.618;10.024;2023-06-22T01:05:20;12.63;;;9.27;;
27642;SDS011;15053;48.618;10.024;2023-06-22T01:08:05;12.50;;;8.82;;
27642;SDS011;15053;48.618;10.024;2023-06-22T01:13:21;12.80;;;8.60;;
27642;SDS011;15053;48.618;10.024;2023-06-22T01:15:51;12.57;;;9.13;;
27642;SDS011;15053;48.618;10.024;2023-06-22T01:18:23;15.05;;;9.73;;
27642;SDS011;15053;48.618;10.024;2023-06-22T01:20:53;15.27;;;10.63;;
27642;SDS011;15053;48.618;10.024;2023-06-22T01:26:37;15.25;;;8.95;;
27642;SDS011;15053;48.618;10.024;2023-06-22T01:29:23;11.75;;;7.85;;
27642;SDS011;15053;48.618;10.024;2023-06-22T01:31:51;16.45;;;9.45;;
27642;SDS011;15053;48.618;10.024;2023-06-22T01:34:21;14.23;;;8.55;;
27642;SDS011;15053;48.618;10.024;2023-06-22T01:36:49;12.85;;;9.38;;
27642;SDS011;15053;48.618;10.024;2023-06-22T01:39:17;13.52;;;8.90;;
27642;SDS011;15053;48.618;10.024;2023-06-22T01:41:44;12.90;;;8.77;;
27642;SDS011;15053;48.618;10.024;2023-06-22T01:44:14;14.18;;;8.80;;
27642;SDS011;15053;48.618;10.024;2023-06-22T01:46:41;13.68;;;8.70;;
27642;SDS011;15053;48.618;10.024;2023-06-22T01:49:08;14.85;;;9.13;;
27642;SDS011;15053;48.618;10.024;2023-06-22T01:51:35;15.23;;;9.45;;
27642;SDS011;15053;48.618;10.024;2023-06-22T01:54:01;14.77;;;9.98;;
27642;SDS011;15053;48.618;10.024;2023-06-22T01:56:29;16.25;;;9.50;;
27642;SDS011;15053;48.618;10.024;2023-06-22T01:59:00;14.45;;;9.20;;
27642;SDS011;15053;48.618;10.024;2023-06-22T02:01:40;14.30;;;8.52;;
27642;SDS011;15053;48.618;10.024;2023-06-22T02:04:24;16.60;;;8.82;;
27642;SDS011;15053;48.618;10.024;2023-06-22T02:06:56;11.90;;;9.38;;
27642;SDS011;15053;48.618;10.024;2023-06-22T02:09:25;16.98;;;9.60;;
27642;SDS011;15053;48.618;10.024;2023-06-22T02:11:56;17.35;;;10.38;;
27642;SDS011;15053;48.618;10.024;2023-06-22T02:14:23;16.48;;;9.95;;
27642;SDS011;15053;48.618;10.024;2023-06-22T02:16:51;14.43;;;9.70;;
27642;SDS011;15053;48.618;10.024;2023-06-22T02:19:22;13.75;;;9.35;;
27642;SDS011;15053;48.618;10.024;2023-06-22T02:21:49;15.40;;;10.07;;
27642;SDS011;15053;48.618;10.024;2023-06-22T02:24:15;15.27;;;9.93;;
27642;SDS011;15053;48.618;10.024;2023-06-22T02:26:42;16.60;;;11.32;;
27642;SDS011;15053;48.618;10.024;2023-06-22T02:29:11;14.13;;;10.20;;
27642;SDS011;15053;48.618;10.024;2023-06-22T02:31:38;16.77;;;10.05;;
27642;SDS011;15053;48.618;10.024;2023-06-22T02:34:04;14.73;;;10.25;;
27642;SDS011;15053;48.618;10.024;2023-06-22T02:36:31;15.13;;;9.82;;
27642;SDS011;15053;48.618;10.024;2023-06-22T02:38:59;19.45;;;10.68;;
27642;SDS011;15053;48.618;10.024;2023-06-22T02:41:29;19.90;;;11.65;;
27642;SDS011;15053;48.618;10.024;2023-06-22T02:43:55;17.52;;;11.32;;
27642;SDS011;15053;48.618;10.024;2023-06-22T02:46:22;13.27;;;9.65;;
27642;SDS011;15053;48.618;10.024;2023-06-22T02:48:49;14.55;;;9.40;;
27642;SDS011;15053;48.618;10.024;2023-06-22T02:51:15;13.60;;;9.68;;
27642;SDS011;15053;48.618;10.024;2023-06-22T02:53:42;15.80;;;10.48;;
27642;SDS011;15053;48.618;10.024;2023-06-22T02:56:13;14.52;;;10.48;;
27642;SDS011;15053;48.618;10.024;2023-06-22T02:58:39;15.55;;;10.50;;
27642;SDS011;15053;48.618;10.024;2023-06-22T03:01:09;15.05;;;9.75;;
27642;SDS011;15053;48.618;10.024;2023-06-22T03:03:36;14.30;;;9.20;;
27642;SDS011;15053;48.618;10.024;2023-06-22T03:06:03;10.77;;;8.63;;
27642;SDS011;15053;48.618;10.024;2023-06-22T03:08:30;14.48;;;9.77;;
27642;SDS011;15053;48.618;10.024;2023-06-22T03:10:57;14.15;;;10.10;;
27642;SDS011;15053;48.618;10.024;2023-06-22T03:13:23;14.20;;;9.32;;
27642;SDS011;15053;48.618;10.024;2023-06-22T03:15:50;14.27;;;9.65;;
27642;SDS011;15053;48.618;10.024;2023-06-22T03:18:16;12.02;;;8.95;;
27642;SDS011;15053;48.618;10.024;2023-06-22T03:20:43;14.73;;;8.85;;
27642;SDS011;15053;48.618;10.024;2023-06-22T03:23:09;15.38;;;8.98;;
27642;SDS011;15053;48.618;10.024;2023-06-22T03:25:37;14.40;;;8.85;;
27642;SDS011;15053;48.618;10.024;2023-06-22T03:28:04;12.50;;;8.65;;
27642;SDS011;15053;48.618;10.024;2023-06-22T03:30:31;10.23;;;8.32;;
27642;SDS011;15053;48.618;10.024;2023-06-22T03:32:59;11.55;;;8.73;;
27642;SDS011;15053;48.618;10.024;2023-06-22T03:35:26;14.52;;;9.25;;
27642;SDS011;15053;48.618;10.024;2023-06-22T03:37:53;12.27;;;9.18;;
27642;SDS011;15053;48.618;10.024;2023-06-22T03:40:20;15.50;;;9.10;;
27642;SDS011;15053;48.618;10.024;2023-06-22T03:42:46;13.27;;;9.77;;
27642;SDS011;15053;48.618;10.024;2023-06-22T03:45:13;13.88;;;9.10;;
27642;SDS011;15053;48.618;10.024;2023-06-22T03:47:40;12.40;;;9.43;;
27642;SDS011;15053;48.618;10.024;2023-06-22T03:50:07;15.50;;;9.82;;
27642;SDS011;15053;48.618;10.024;2023-06-22T03:52:34;13.30;;;9.10;;
27642;SDS011;15053;48.618;10.024;2023-06-22T03:55:00;14.23;;;8.77;;
27642;SDS011;15053;48.618;10.024;2023-06-22T03:57:27;13.27;;;9.25;;
27642;SDS011;15053;48.618;10.024;2023-06-22T03:59:56;14.88;;;8.98;;
27642;SDS011;15053;48.618;10.024;2023-06-22T04:02:23;15.98;;;9.38;;
27642;SDS011;15053;48.618;10.024;2023-06-22T04:04:50;15.75;;;9.98;;
27642;SDS011;15053;48.618;10.024;2023-06-22T04:07:16;15.57;;;9.50;;
27642;SDS011;15053;48.618;10.024;2023-06-22T04:09:44;13.48;;;9.52;;
27642;SDS011;15053;48.618;10.024;2023-06-22T04:12:10;19.50;;;9.43;;
27642;SDS011;15053;48.618;10.024;2023-06-22T04:14:37;11.63;;;8.57;;
27642;SDS011;15053;48.618;10.024;2023-06-22T04:17:03;12.48;;;8.40;;
27642;SDS011;15053;48.618;10.024;2023-06-22T04:19:30;11.98;;;9.02;;
27642;SDS011;15053;48.618;10.024;2023-06-22T04:21:57;13.90;;;9.05;;
27642;SDS011;15053;48.618;10.024;2023-06-22T04:24:23;12.55;;;8.85;;
27642;SDS011;15053;48.618;10.024;2023-06-22T04:26:50;11.48;;;8.70;;
27642;SDS011;15053;48.618;10.024;2023-06-22T04:29:21;15.80;;;9.93;;
27642;SDS011;15053;48.618;10.024;2023-06-22T04:31:54;12.05;;;7.97;;
27642;SDS011;15053;48.618;10.024;2023-06-22T04:34:24;14.35;;;8.80;;
27642;SDS011;15053;48.618;10.024;2023-06-22T04:36:54;13.85;;;8.93;;
27642;SDS011;15053;48.618;10.024;2023-06-22T04:39:21;12.40;;;8.38;;
27642;SDS011;15053;48.618;10.024;2023-06-22T04:41:47;14.40;;;8.48;;
27642;SDS011;15053;48.618;10.024;2023-06-22T04:44:15;11.50;;;7.97;;
27642;SDS011;15053;48.618;10.024;2023-06-22T04:46:52;13.90;;;8.07;;
27642;SDS011;15053;48.618;10.024;2023-06-22T04:49:27;12.65;;;8.25;;
27642;SDS011;15053;48.618;10.024;2023-06-22T04:52:05;14.07;;;8.35;;
27642;SDS011;15053;48.618;10.024;2023-06-22T04:54:35;14.93;;;8.65;;
27642;SDS011;15053;48.618;10.024;2023-06-22T04:57:03;12.00;;;8.23;;
27642;SDS011;15053;48.618;10.024;2023-06-22T04:59:36;12.57;;;8.00;;
27642;SDS011;15053;48.618;10.024;2023-06-22T05:02:05;11.55;;;8.10;;
27642;SDS011;15053;48.618;10.024;2023-06-22T05:04:34;9.65;;;7.72;;
27642;SDS011;15053;48.618;10.024;2023-06-22T05:07:05;12.25;;;7.78;;
27642;SDS011;15053;48.618;10.024;2023-06-22T05:09:32;10.13;;;7.20;;
27642;SDS011;15053;48.618;10.024;2023-06-22T05:12:00;12.93;;;8.07;;
27642;SDS011;15053;48.618;10.024;2023-06-22T05:14:29;10.60;;;7.88;;
27642;SDS011;15053;48.618;10.024;2023-06-22T05:16:56;13.57;;;8.05;;
27642;SDS011;15053;48.618;10.024;2023-06-22T05:19:25;11.82;;;7.68;;
27642;SDS011;15053;48.618;10.024;2023-06-22T05:21:57;12.77;;;7.20;;
27642;SDS011;15053;48.618;10.024;2023-06-22T05:24:24;13.27;;;7.60;;
27642;SDS011;15053;48.618;10.024;2023-06-22T05:26:50;10.57;;;6.93;;
27642;SDS011;15053;48.618;10.024;2023-06-22T05:29:17;11.40;;;7.85;;
27642;SDS011;15053;48.618;10.024;2023-06-22T05:31:43;12.13;;;7.38;;
27642;SDS011;15053;48.618;10.024;2023-06-22T05:34:10;11.48;;;7.22;;
27642;SDS011;15053;48.618;10.024;2023-06-22T05:36:36;11.82;;;7.40;;
27642;SDS011;15053;48.618;10.024;2023-06-22T05:39:10;13.90;;;8.30;;
27642;SDS011;15053;48.618;10.024;2023-06-22T05:41:39;12.30;;;8.13;;
27642;SDS011;15053;48.618;10.024;2023-06-22T05:44:05;14.25;;;7.03;;
27642;SDS011;15053;48.618;10.024;2023-06-22T05:46:32;11.88;;;7.35;;
27642;SDS011;15053;48.618;10.024;2023-06-22T05:48:59;11.57;;;7.43;;
27642;SDS011;15053;48.618;10.024;2023-06-22T05:51:25;15.43;;;8.23;;
27642;SDS011;15053;48.618;10.024;2023-06-22T05:53:52;12.23;;;7.75;;
27642;SDS011;15053;48.618;10.024;2023-06-22T05:56:18;10.40;;;7.47;;
27642;SDS011;15053;48.618;10.024;2023-06-22T05:58:45;11.90;;;7.78;;
27642;SDS011;15053;48.618;10.024;2023-06-22T06:01:12;13.80;;;7.32;;
27642;SDS011;15053;48.618;10.024;2023-06-22T06:03:41;10.60;;;7.65;;
27642;SDS011;15053;48.618;10.024;2023-06-22T06:06:07;10.05;;;7.50;;
27642;SDS011;15053;48.618;10.024;2023-06-22T06:08:34;10.05;;;7.18;;
27642;SDS011;15053;48.618;10.024;2023-06-22T06:11:00;10.85;;;6.97;;
27642;SDS011;15053;48.618;10.024;2023-06-22T06:13:27;11.30;;;6.82;;
27642;SDS011;15053;48.618;10.024;2023-06-22T06:15:54;9.77;;;6.68;;
27642;SDS011;15053;48.618;10.024;2023-06-22T06:18:23;13.68;;;6.60;;
27642;SDS011;15053;48.618;10.024;2023-06-22T06:20:50;9.93;;;6.32;;
27642;SDS011;15053;48.618;10.024;2023-06-22T06:23:16;8.75;;;6.13;;
27642;SDS011;15053;48.618;10.024;2023-06-22T06:25:43;16.88;;;8.18;;
27642;SDS011;15053;48.618;10.024;2023-06-22T06:28:09;9.90;;;7.07;;
27642;SDS011;15053;48.618;10.024;2023-06-22T06:30:36;10.60;;;7.18;;
27642;SDS011;15053;48.618;10.024;2023-06-22T06:33:03;11.20;;;7.05;;
27642;SDS011;15053;48.618;10.024;2023-06-22T06:35:35;12.18;;;7.40;;
27642;SDS011;15053;48.618;10.024;2023-06-22T06:38:02;12.00;;;6.93;;
27642;SDS011;15053;48.618;10.024;2023-06-22T06:40:28;15.18;;;7.75;;
27642;SDS011;15053;48.618;10.024;2023-06-22T06:42:56;13.10;;;6.88;;
27642;SDS011;15053;48.618;10.024;2023-06-22T06:45:23;11.55;;;7.57;;
27642;SDS011;15053;48.618;10.024;2023-06-22T06:47:51;11.75;;;7.40;;
27642;SDS011;15053;48.618;10.024;2023-06-22T06:50:19;10.48;;;7.47;;
27642;SDS011;15053;48.618;10.024;2023-06-22T06:52:45;13.63;;;7.32;;
27642;SDS011;15053;48.618;10.024;2023-06-22T06:55:12;12.93;;;7.85;;
27642;SDS011;15053;48.618;10.024;2023-06-22T06:57:41;13.80;;;7.38;;
27642;SDS011;15053;48.618;10.024;2023-06-22T07:00:09;13.10;;;6.50;;
27642;SDS011;15053;48.618;10.024;2023-06-22T07:02:41;14.57;;;7.20;;
27642;SDS011;15053;48.618;10.024;2023-06-22T07:05:09;12.40;;;6.55;;
27642;SDS011;15053;48.618;10.024;2023-06-22T07:07:37;12.32;;;6.05;;
27642;SDS011;15053;48.618;10.024;2023-06-22T07:10:05;10.88;;;6.22;;
27642;SDS011;15053;48.618;10.024;2023-06-22T07:12:32;9.57;;;5.80;;
27642;SDS011;15053;48.618;10.024;2023-06-22T07:15:06;13.18;;;6.45;;
27642;SDS011;15053;48.618;10.024;2023-06-22T07:17:38;16.65;;;6.05;;
27642;SDS011;15053;48.618;10.024;2023-06-22T07:20:08;10.75;;;6.32;;
27642;SDS011;15053;48.618;10.024;2023-06-22T07:22:36;12.18;;;6.60;;
27642;SDS011;15053;48.618;10.024;2023-06-22T07:25:04;10.55;;;6.68;;
27642;SDS011;15053;48.618;10.024;2023-06-22T07:27:38;10.30;;;6.57;;
27642;SDS011;15053;48.618;10.024;2023-06-22T07:30:09;13.95;;;7.05;;
27642;SDS011;15053;48.618;10.024;2023-06-22T07:32:36;12.30;;;6.90;;
27642;SDS011;15053;48.618;10.024;2023-06-22T07:35:03;12.05;;;6.05;;
27642;SDS011;15053;48.618;10.024;2023-06-22T07:37:31;13.35;;;6.78;;
27642;SDS011;15053;48.618;10.024;2023-06-22T07:39:59;13.48;;;6.25;;
27642;SDS011;15053;48.618;10.024;2023-06-22T07:42:26;10.98;;;5.90;;
27642;SDS011;15053;48.618;10.024;2023-06-22T07:44:53;13.18;;;6.70;;
27642;SDS011;15053;48.618;10.024;2023-06-22T07:47:20;13.27;;;6.20;;
27642;SDS011;15053;48.618;10.024;2023-06-22T07:49:51;10.73;;;7.03;;
27642;SDS011;15053;48.618;10.024;2023-06-22T07:52:20;13.07;;;7.38;;
27642;SDS011;15053;48.618;10.024;2023-06-22T07:54:47;17.17;;;6.88;;
27642;SDS011;15053;48.618;10.024;2023-06-22T07:57:14;15.32;;;7.07;;
27642;SDS011;15053;48.618;10.024;2023-06-22T07:59:40;11.98;;;7.72;;
27642;SDS011;15053;48.618;10.024;2023-06-22T08:02:06;14.68;;;7.35;;
27642;SDS011;15053;48.618;10.024;2023-06-22T08:04:35;13.88;;;7.82;;
27642;SDS011;15053;48.618;10.024;2023-06-22T08:07:01;21.63;;;8.60;;
27642;SDS011;15053;48.618;10.024;2023-06-22T08:09:28;16.15;;;8.68;;
27642;SDS011;15053;48.618;10.024;2023-06-22T08:11:56;20.20;;;8.75;;
27642;SDS011;15053;48.618;10.024;2023-06-22T08:14:25;13.13;;;8.15;;
27642;SDS011;15053;48.618;10.024;2023-06-22T08:16:52;14.95;;;8.65;;
27642;SDS011;15053;48.618;10.024;2023-06-22T08:19:18;18.70;;;7.57;;
27642;SDS011;15053;48.618;10.024;2023-06-22T08:21:45;18.70;;;9.02;;
27642;SDS011;15053;48.618;10.024;2023-06-22T08:24:11;13.45;;;8.50;;
27642;SDS011;15053;48.618;10.024;2023-06-22T08:26:39;14.48;;;9.20;;
27642;SDS011;15053;48.618;10.024;2023-06-22T08:29:05;16.63;;;8.85;;
27642;SDS011;15053;48.618;10.024;2023-06-22T08:31:32;14.20;;;8.82;;
27642;SDS011;15053;48.618;10.024;2023-06-22T08:34:00;15.52;;;8.35;;
27642;SDS011;15053;48.618;10.024;2023-06-22T08:36:27;14.25;;;9.40;;
27642;SDS011;15053;48.618;10.024;2023-06-22T08:38:58;20.63;;;10.20;;
27642;SDS011;15053;48.618;10.024;2023-06-22T08:41:28;15.63;;;10.23;;
27642;SDS011;15053;48.618;10.024;2023-06-22T08:43:54;16.58;;;9.57;;
27642;SDS011;15053;48.618;10.024;2023-06-22T08:46:21;16.48;;;9.35;;
27642;SDS011;15053;48.618;10.024;2023-06-22T08:48:50;19.33;;;9.93;;
27642;SDS011;15053;48.618;10.024;2023-06-22T08:51:17;15.00;;;8.82;;
27642;SDS011;15053;48.618;10.024;2023-06-22T08:53:43;19.80;;;9.77;;
27642;SDS011;15053;48.618;10.024;2023-06-22T08:56:11;16.40;;;9.32;;
27642;SDS011;15053;48.618;10.024;2023-06-22T08:58:38;17.52;;;9.00;;
27642;SDS011;15053;48.618;10.024;2023-06-22T09:01:04;13.90;;;9.40;;
27642;SDS011;15053;48.618;10.024;2023-06-22T09:03:31;19.48;;;9.98;;
27642;SDS011;15053;48.618;10.024;2023-06-22T09:05:59;19.35;;;9.82;;
27642;SDS011;15053;48.618;10.024;2023-06-22T09:08:25;15.68;;;9.93;;
27642;SDS011;15053;48.618;10.024;2023-06-22T09:10:52;17.33;;;10.40;;
27642;SDS011;15053;48.618;10.024;2023-06-22T09:13:19;20.25;;;10.32;;
27642;SDS011;15053;48.618;10.024;2023-06-22T09:15:45;18.73;;;9.70;;
27642;SDS011;15053;48.618;10.024;2023-06-22T09:18:12;17.95;;;9.10;;
27642;SDS011;15053;48.618;10.024;2023-06-22T09:20:39;16.95;;;9.20;;
27642;SDS011;15053;48.618;10.024;2023-06-22T09:23:06;14.88;;;9.80;;
27642;SDS011;15053;48.618;10.024;2023-06-22T09:25:32;15.77;;;8.73;;
27642;SDS011;15053;48.618;10.024;2023-06-22T09:27:59;19.05;;;9.60;;
27642;SDS011;15053;48.618;10.024;2023-06-22T09:30:25;18.83;;;9.77;;
27642;SDS011;15053;48.618;10.024;2023-06-22T09:32:52;17.75;;;10.23;;
27642;SDS011;15053;48.618;10.024;2023-06-22T09:35:20;16.42;;;9.98;;
27642;SDS011;15053;48.618;10.024;2023-06-22T09:37:47;13.35;;;8.85;;
27642;SDS011;15053;48.618;10.024;2023-06-22T09:40:13;19.63;;;9.55;;
27642;SDS011;15053;48.618;10.024;2023-06-22T09:42:43;18.58;;;9.75;;
27642;SDS011;15053;48.618;10.024;2023-06-22T09:45:09;16.85;;;8.13;;
27642;SDS011;15053;48.618;10.024;2023-06-22T09:47:36;16.55;;;9.10;;
27642;SDS011;15053;48.618;10.024;2023-06-22T09:50:03;14.93;;;9.00;;
27642;SDS011;15053;48.618;10.024;2023-06-22T09:52:30;18.05;;;9.50;;
27642;SDS011;15053;48.618;10.024;2023-06-22T09:55:12;16.55;;;8.82;;
27642;SDS011;15053;48.618;10.024;2023-06-22T09:57:38;19.70;;;9.77;;
27642;SDS011;15053;48.618;10.024;2023-06-22T10:00:05;17.30;;;9.55;;
27642;SDS011;15053;48.618;10.024;2023-06-22T10:02:35;18.77;;;8.93;;
27642;SDS011;15053;48.618;10.024;2023-06-22T10:05:02;18.10;;;10.18;;
27642;SDS011;15053;48.618;10.024;2023-06-22T10:07:29;12.93;;;8.90;;
27642;SDS011;15053;48.618;10.024;2023-06-22T10:09:55;16.15;;;9.15;;
27642;SDS011;15053;48.618;10.024;2023-06-22T10:12:22;19.13;;;9.18;;
27642;SDS011;15053;48.618;10.024;2023-06-22T10:14:48;17.48;;;8.63;;
27642;SDS011;15053;48.618;10.024;2023-06-22T10:17:15;16.55;;;8.75;;
27642;SDS011;15053;48.618;10.024;2023-06-22T10:19:42;17.95;;;8.05;;
27642;SDS011;15053;48.618;10.024;2023-06-22T10:22:08;21.38;;;8.77;;
27642;SDS011;15053;48.618;10.024;2023-06-22T10:24:35;16.00;;;9.27;;
27642;SDS011;15053;48.618;10.024;2023-06-22T10:27:01;13.80;;;7.95;;
27642;SDS011;15053;48.618;10.024;2023-06-22T10:29:28;18.23;;;9.13;;
27642;SDS011;15053;48.618;10.024;2023-06-22T10:31:54;18.08;;;8.18;;
27642;SDS011;15053;48.618;10.024;2023-06-22T10:34:21;12.27;;;7.78;;
27642;SDS011;15053;48.618;10.024;2023-06-22T10:36:47;14.18;;;8.75;;
27642;SDS011;15053;48.618;10.024;2023-06-22T10:39:15;19.88;;;9.20;;
27642;SDS011;15053;48.618;10.024;2023-06-22T10:41:41;23.58;;;8.93;;
27642;SDS011;15053;48.618;10.024;2023-06-22T10:44:08;16.65;;;8.98;;
27642;SDS011;15053;48.618;10.024;2023-06-22T10:46:35;16.75;;;8.77;;
27642;SDS011;15053;48.618;10.024;2023-06-22T10:49:01;17.55;;;8.98;;
27642;SDS011;15053;48.618;10.024;2023-06-22T10:51:28;14.48;;;8.52;;
27642;SDS011;15053;48.618;10.024;2023-06-22T10:53:55;17.73;;;8.25;;
27642;SDS011;15053;48.618;10.024;2023-06-22T10:56:21;14.55;;;7.72;;
27642;SDS011;15053;48.618;10.024;2023-06-22T10:58:47;17.08;;;8.27;;
27642;SDS011;15053;48.618;10.024;2023-06-22T11:01:14;15.95;;;8.30;;
27642;SDS011;15053;48.618;10.024;2023-06-22T11:04:00;17.83;;;8.20;;
27642;SDS011;15053;48.618;10.024;2023-06-22T11:06:27;15.40;;;7.88;;
27642;SDS011;15053;48.618;10.024;2023-06-22T11:08:54;14.57;;;6.93;;
27642;SDS011;15053;48.618;10.024;2023-06-22T11:11:31;21.13;;;8.02;;
27642;SDS011;15053;48.618;10.024;2023-06-22T11:13:58;14.82;;;8.27;;
27642;SDS011;15053;48.618;10.024;2023-06-22T11:16:25;12.73;;;8.00;;
27642;SDS011;15053;48.618;10.024;2023-06-22T11:18:51;15.32;;;8.15;;
27642;SDS011;15053;48.618;10.024;2023-06-22T11:21:18;18.05;;;7.90;;
27642;SDS011;15053;48.618;10.024;2023-06-22T11:23:45;18.13;;;6.95;;
27642;SDS011;15053;48.618;10.024;2023-06-22T11:26:11;11.45;;;7.53;;
27642;SDS011;15053;48.618;10.024;2023-06-22T11:28:38;14.13;;;7.53;;
27642;SDS011;15053;48.618;10.024;2023-06-22T11:31:04;16.17;;;8.18;;
27642;SDS011;15053;48.618;10.024;2023-06-22T11:33:50;15.93;;;7.32;;
27642;SDS011;15053;48.618;10.024;2023-06-22T11:36:17;15.90;;;8.23;;
27642;SDS011;15053;48.618;10.024;2023-06-22T11:38:44;18.00;;;8.23;;
27642;SDS011;15053;48.618;10.024;2023-06-22T11:41:11;18.25;;;7.65;;
27642;SDS011;15053;48.618;10.024;2023-06-22T11:43:37;17.08;;;7.78;;
27642;SDS011;15053;48.618;10.024;2023-06-22T11:46:04;13.15;;;8.18;;
27642;SDS011;15053;48.618;10.024;2023-06-22T11:48:30;16.88;;;8.00;;
27642;SDS011;15053;48.618;10.024;2023-06-22T11:50:57;13.88;;;8.30;;
27642;SDS011;15053;48.618;10.024;2023-06-22T11:53:26;16.98;;;7.35;;
27642;SDS011;15053;48.618;10.024;2023-06-22T11:55:53;16.42;;;7.82;;
27642;SDS011;15053;48.618;10.024;2023-06-22T11:58:21;17.70;;;7.15;;
27642;SDS011;15053;48.618;10.024;2023-06-22T12:00:49;21.02;;;7.82;;
27642;SDS011;15053;48.618;10.024;2023-06-22T12:03:18;24.83;;;7.88;;
27642;SDS011;15053;48.618;10.024;2023-06-22T12:05:45;14.75;;;7.35;;
27642;SDS011;15053;48.618;10.024;2023-06-22T12:08:12;18.33;;;7.93;;
27642;SDS011;15053;48.618;10.024;2023-06-22T12:10:39;18.25;;;8.07;;
27642;SDS011;15053;48.618;10.024;2023-06-22T12:13:06;14.45;;;7.38;;
27642;SDS011;15053;48.618;10.024;2023-06-22T12:15:32;17.45;;;7.97;;
27642;SDS011;15053;48.618;10.024;2023-06-22T12:17:59;15.32;;;7.40;;
27642;SDS011;15053;48.618;10.024;2023-06-22T12:20:27;21.67;;;9.10;;
27642;SDS011;15053;48.618;10.024;2023-06-22T12:22:54;21.95;;;8.88;;
27642;SDS011;15053;48.618;10.024;2023-06-22T12:25:22;14.95;;;7.20;;
27642;SDS011;15053;48.618;10.024;2023-06-22T12:27:49;19.80;;;8.00;;
27642;SDS011;15053;48.618;10.024;2023-06-22T12:30:16;18.02;;;7.85;;
27642;SDS011;15053;48.618;10.024;2023-06-22T12:32:43;17.13;;;8.40;;
27642;SDS011;15053;48.618;10.024;2023-06-22T12:35:09;17.48;;;7.40;;
27642;SDS011;15053;48.618;10.024;2023-06-22T12:37:40;18.98;;;7.90;;
27642;SDS011;15053;48.618;10.024;2023-06-22T12:40:08;19.25;;;7.90;;
27642;SDS011;15053;48.618;10.024;2023-06-22T12:42:36;22.20;;;8.43;;
27642;SDS011;15053;48.618;10.024;2023-06-22T12:45:02;16.48;;;8.30;;
27642;SDS011;15053;48.618;10.024;2023-06-22T12:47:29;14.88;;;7.85;;
27642;SDS011;15053;48.618;10.024;2023-06-22T12:49:57;31.42;;;7.93;;
27642;SDS011;15053;48.618;10.024;2023-06-22T12:52:24;14.02;;;6.97;;
27642;SDS011;15053;48.618;10.024;2023-06-22T12:54:50;14.25;;;7.95;;
27642;SDS011;15053;48.618;10.024;2023-06-22T12:57:21;16.60;;;7.80;;
27642;SDS011;15053;48.618;10.024;2023-06-22T12:59:48;22.05;;;9.63;;
27642;SDS011;15053;48.618;10.024;2023-06-22T13:02:14;18.77;;;8.57;;
27642;SDS011;15053;48.618;10.024;2023-06-22T13:04:41;21.40;;;8.27;;
27642;SDS011;15053;48.618;10.024;2023-06-22T13:07:09;14.90;;;7.10;;
27642;SDS011;15053;48.618;10.024;2023-06-22T13:09:48;17.08;;;7.97;;
27642;SDS011;15053;48.618;10.024;2023-06-22T13:12:19;14.27;;;8.02;;
27642;SDS011;15053;48.618;10.024;2023-06-22T13:14:46;19.48;;;7.65;;
27642;SDS011;15053;48.618;10.024;2023-06-22T13:17:14;13.57;;;7.32;;
27642;SDS011;15053;48.618;10.024;2023-06-22T13:19:40;13.23;;;7.35;;
27642;SDS011;15053;48.618;10.024;2023-06-22T13:25:06;18.55;;;7.90;;
27642;SDS011;15053;48.618;10.024;2023-06-22T13:27:33;23.13;;;10.02;;
27642;SDS011;15053;48.618;10.024;2023-06-22T13:29:59;19.05;;;8.73;;
27642;SDS011;15053;48.618;10.024;2023-06-22T13:32:26;19.25;;;8.05;;
27642;SDS011;15053;48.618;10.024;2023-06-22T13:34:53;19.85;;;9.02;;
27642;SDS011;15053;48.618;10.024;2023-06-22T13:37:20;20.95;;;11.93;;
27642;SDS011;15053;48.618;10.024;2023-06-22T13:39:46;16.95;;;8.27;;
27642;SDS011;15053;48.618;10.024;2023-06-22T13:42:13;15.05;;;8.00;;
27642;SDS011;15053;48.618;10.024;2023-06-22T13:44:40;19.05;;;9.57;;
27642;SDS011;15053;48.618;10.024;2023-06-22T13:47:06;15.55;;;8.48;;
27642;SDS011;15053;48.618;10.024;2023-06-22T13:49:34;20.48;;;10.77;;
27642;SDS011;15053;48.618;10.024;2023-06-22T13:52:00;17.42;;;8.82;;
27642;SDS011;15053;48.618;10.024;2023-06-22T13:54:27;14.77;;;8.50;;
27642;SDS011;15053;48.618;10.024;2023-06-22T13:56:57;20.50;;;10.00;;
27642;SDS011;15053;48.618;10.024;2023-06-22T13:59:23;18.65;;;8.73;;
27642;SDS011;15053;48.618;10.024;2023-06-22T14:01:50;17.20;;;7.90;;
27642;SDS011;15053;48.618;10.024;2023-06-22T14:04:16;21.45;;;10.38;;
27642;SDS011;15053;48.618;10.024;2023-06-22T14:06:43;18.58;;;10.75;;
27642;SDS011;15053;48.618;10.024;2023-06-22T14:09:09;18.65;;;12.20;;
27642;SDS011;15053;48.618;10.024;2023-06-22T14:11:36;17.02;;;7.88;;
27642;SDS011;15053;48.618;10.024;2023-06-22T14:14:03;18.30;;;8.70;;
27642;SDS011;15053;48.618;10.024;2023-06-22T14:16:30;19.08;;;8.63;;
27642;SDS011;15053;48.618;10.024;2023-06-22T14:18:56;25.25;;;9.30;;
27642;SDS011;15053;48.618;10.024;2023-06-22T14:21:23;16.52;;;8.15;;
27642;SDS011;15053;48.618;10.024;2023-06-22T14:23:50;17.08;;;7.03;;
27642;SDS011;15053;48.618;10.024;2023-06-22T14:26:17;16.35;;;7.90;;
27642;SDS011;15053;48.618;10.024;2023-06-22T14:28:46;23.05;;;8.70;;
27642;SDS011;15053;48.618;10.024;2023-06-22T14:31:15;18.80;;;10.40;;
27642;SDS011;15053;48.618;10.024;2023-06-22T14:33:45;22.90;;;8.77;;